createdAt,value
2023-03-29T00:01:10.475Z,3.30
2023-03-29T00:03:40.343Z,3.30
2023-03-29T00:06:09.834Z,4.50
2023-03-29T00:08:38.471Z,3.30
2023-03-29T00:11:08.334Z,2.90
2023-03-29T00:13:36.699Z,3.30
2023-03-29T00:16:05.167Z,3.00
2023-03-29T00:18:33.362Z,2.60
2023-03-29T00:21:02.066Z,3.20
2023-03-29T00:23:32.720Z,3.20
2023-03-29T00:26:01.242Z,3.90
2023-03-29T00:28:29.931Z,2.70
2023-03-29T00:31:10.415Z,3.90
2023-03-29T00:33:40.192Z,4.30
2023-03-29T00:36:10.440Z,3.10
2023-03-29T00:38:40.124Z,3.00
2023-03-29T00:41:09.116Z,2.60
2023-03-29T00:44:00.508Z,2.60
2023-03-29T00:46:30.635Z,2.40
2023-03-29T00:49:05.427Z,3.00
2023-03-29T00:51:37.454Z,2.70
2023-03-29T00:54:14.933Z,3.60
2023-03-29T00:56:47.552Z,2.30
2023-03-29T00:59:21.769Z,2.30
2023-03-29T01:01:54.603Z,2.80
2023-03-29T01:04:29.528Z,2.90
2023-03-29T01:07:07.356Z,3.00
2023-03-29T01:09:40.175Z,3.20
2023-03-29T01:12:17.245Z,3.20
2023-03-29T01:15:11.468Z,2.90
2023-03-29T01:17:43.426Z,2.60
2023-03-29T01:20:20.361Z,2.90
2023-03-29T01:23:02.782Z,2.90
2023-03-29T01:25:42.303Z,3.30
2023-03-29T01:28:14.948Z,2.90
2023-03-29T01:30:55.148Z,2.60
2023-03-29T01:33:28.434Z,3.20
2023-03-29T01:36:08.135Z,3.60
2023-03-29T01:38:49.711Z,3.00
2023-03-29T01:41:17.912Z,3.50
2023-03-29T01:43:56.930Z,3.00
2023-03-29T01:46:45.097Z,4.20
2023-03-29T01:49:19.528Z,3.40
2023-03-29T01:52:00.036Z,3.00
2023-03-29T01:54:54.980Z,2.60
2023-03-29T01:57:25.145Z,2.90
2023-03-29T01:59:57.788Z,3.10
2023-03-29T02:02:30.582Z,2.90
2023-03-29T02:05:00.274Z,2.50
2023-03-29T02:07:32.377Z,3.20
2023-03-29T02:10:02.232Z,2.80
2023-03-29T02:12:31.275Z,3.60
2023-03-29T02:15:01.047Z,2.80
2023-03-29T02:17:30.593Z,3.00
2023-03-29T02:20:14.197Z,2.60
2023-03-29T02:22:52.263Z,2.90
2023-03-29T02:25:22.629Z,2.40
2023-03-29T02:27:52.914Z,3.10
2023-03-29T02:30:21.654Z,2.60
2023-03-29T02:32:56.053Z,3.00
2023-03-29T02:35:35.170Z,3.50
2023-03-29T02:38:06.528Z,3.20
2023-03-29T02:40:37.794Z,3.00
2023-03-29T02:43:09.326Z,3.30
2023-03-29T02:45:40.066Z,3.10
2023-03-29T02:48:12.252Z,3.20
2023-03-29T02:50:43.114Z,2.70
2023-03-29T02:53:17.908Z,2.70
2023-03-29T02:55:47.032Z,2.90
2023-03-29T02:58:15.725Z,3.20
2023-03-29T03:00:49.190Z,3.30
2023-03-29T03:03:17.542Z,3.20
2023-03-29T03:05:47.883Z,2.70
2023-03-29T03:08:16.141Z,2.50
2023-03-29T03:10:45.928Z,2.50
2023-03-29T03:13:14.178Z,2.40
2023-03-29T03:15:42.990Z,2.20
2023-03-29T03:18:12.822Z,2.00
2023-03-29T03:20:41.211Z,2.40
2023-03-29T03:23:09.875Z,2.90
2023-03-29T03:25:38.528Z,3.60
2023-03-29T03:28:06.740Z,3.40
2023-03-29T03:30:34.984Z,3.00
2023-03-29T03:33:22.662Z,2.60
2023-03-29T03:36:11.432Z,3.90
2023-03-29T03:38:40.200Z,3.30
2023-03-29T03:41:09.175Z,2.40
2023-03-29T03:43:37.567Z,2.70
2023-03-29T03:46:05.880Z,2.30
2023-03-29T03:48:34.186Z,6.20
2023-03-29T03:51:18.503Z,5.20
2023-03-29T03:53:47.050Z,5.30
2023-03-29T03:56:16.442Z,7.00
2023-03-29T03:59:05.319Z,4.10
2023-03-29T04:01:48.417Z,2.90
2023-03-29T04:04:19.852Z,2.90
2023-03-29T04:07:13.291Z,6.80
2023-03-29T04:10:00.494Z,12.70
2023-03-29T04:12:40.982Z,6.50
2023-03-29T04:15:10.543Z,4.60
2023-03-29T04:17:40.830Z,4.50
2023-03-29T04:20:28.232Z,4.00
2023-03-29T04:22:56.576Z,5.00
2023-03-29T04:25:25.331Z,3.70
2023-03-29T04:28:13.544Z,4.20
2023-03-29T04:30:58.182Z,4.80
2023-03-29T04:33:47.542Z,3.70
2023-03-29T04:36:16.244Z,4.60
2023-03-29T04:38:47.371Z,4.20
2023-03-29T04:41:16.846Z,5.90
2023-03-29T04:43:59.202Z,6.90
2023-03-29T04:46:33.055Z,7.30
2023-03-29T04:49:20.249Z,7.70
2023-03-29T04:51:51.591Z,5.80
2023-03-29T04:54:22.090Z,6.40
2023-03-29T04:57:17.288Z,9.20
2023-03-29T05:00:15.904Z,6.50
2023-03-29T05:03:11.790Z,6.70
2023-03-29T05:05:44.450Z,8.00
2023-03-29T05:08:12.814Z,8.50
2023-03-29T05:11:11.851Z,7.90
2023-03-29T05:13:40.233Z,6.40
2023-03-29T05:16:09.063Z,6.50
2023-03-29T05:18:37.549Z,16.30
2023-03-29T05:21:06.715Z,6.90
2023-03-29T05:23:36.284Z,6.40
2023-03-29T05:26:23.749Z,7.50
2023-03-29T05:28:54.518Z,10.20
2023-03-29T05:31:26.776Z,9.00
2023-03-29T05:33:56.201Z,6.40
2023-03-29T05:36:25.004Z,6.40
2023-03-29T05:38:53.295Z,7.50
2023-03-29T05:41:23.918Z,4.30
2023-03-29T05:44:26.473Z,5.10
2023-03-29T05:46:59.958Z,6.50
2023-03-29T05:49:28.311Z,6.70
2023-03-29T05:52:06.821Z,7.50
2023-03-29T05:54:37.781Z,10.20
2023-03-29T05:57:09.083Z,16.50
2023-03-29T05:59:38.605Z,6.10
2023-03-29T06:02:07.474Z,6.40
2023-03-29T06:04:37.515Z,6.70
2023-03-29T06:07:24.768Z,6.50
2023-03-29T06:10:12.584Z,6.10
2023-03-29T06:12:43.069Z,4.70
2023-03-29T06:15:13.357Z,5.90
2023-03-29T06:17:53.747Z,6.10
2023-03-29T06:20:22.866Z,6.30
2023-03-29T06:22:54.737Z,5.40
2023-03-29T06:25:25.119Z,6.20
2023-03-29T06:27:54.307Z,6.30
2023-03-29T06:30:22.839Z,6.60
2023-03-29T06:32:54.867Z,6.40
2023-03-29T06:35:48.688Z,5.50
2023-03-29T06:41:03.894Z,5.80
2023-03-29T06:43:43.854Z,3.90
2023-03-29T06:46:17.215Z,4.60
2023-03-29T06:48:56.672Z,4.00
2023-03-29T06:51:31.560Z,4.80
2023-03-29T06:54:00.330Z,6.70
2023-03-29T06:56:29.996Z,8.40
2023-03-29T06:59:08.634Z,15.90
2023-03-29T07:01:47.405Z,13.50
2023-03-29T07:04:24.805Z,5.50
2023-03-29T07:07:20.532Z,6.60
2023-03-29T07:09:55.526Z,2.50
2023-03-29T07:12:48.584Z,3.70
2023-03-29T07:15:21.773Z,3.20
2023-03-29T07:18:22.381Z,3.70
2023-03-29T07:20:52.276Z,2.80
2023-03-29T07:23:20.579Z,3.30
2023-03-29T07:25:50.649Z,3.10
2023-03-29T07:28:20.530Z,2.60
2023-03-29T07:30:51.615Z,3.50
2023-03-29T07:33:26.394Z,6.60
2023-03-29T07:36:02.171Z,5.30
2023-03-29T07:38:32.665Z,8.40
2023-03-29T07:41:11.790Z,5.70
2023-03-29T07:43:52.047Z,16.10
2023-03-29T07:46:25.171Z,8.80
2023-03-29T07:48:53.916Z,6.20
2023-03-29T07:51:24.569Z,9.70
2023-03-29T07:54:03.895Z,11.70
2023-03-29T07:56:51.168Z,29.30
2023-03-29T07:59:23.739Z,9.30
2023-03-29T08:02:11.104Z,9.70
2023-03-29T08:04:48.542Z,5.90
2023-03-29T08:07:21.719Z,11.20
2023-03-29T08:10:21.187Z,8.90
2023-03-29T08:13:07.491Z,4.40
2023-03-29T08:16:09.303Z,3.70
2023-03-29T08:18:43.991Z,3.30
2023-03-29T08:21:19.889Z,3.50
2023-03-29T08:23:55.122Z,3.70
2023-03-29T08:26:31.622Z,3.00
2023-03-29T08:29:00.798Z,3.30
2023-03-29T08:31:30.857Z,3.30
2023-03-29T08:34:00.235Z,2.90
2023-03-29T08:36:44.766Z,3.60
2023-03-29T08:39:20.600Z,3.40
2023-03-29T08:41:58.551Z,3.90
2023-03-29T08:44:50.395Z,3.10
2023-03-29T08:47:42.469Z,3.40
2023-03-29T08:50:14.201Z,3.30
2023-03-29T08:52:55.984Z,3.20
2023-03-29T08:55:49.761Z,3.00
2023-03-29T08:58:33.805Z,5.60
2023-03-29T09:01:06.326Z,3.30
2023-03-29T09:03:48.047Z,5.00
2023-03-29T09:06:23.122Z,15.40
2023-03-29T09:08:53.610Z,27.90
2023-03-29T09:11:33.688Z,7.40
2023-03-29T09:14:23.630Z,11.50
2023-03-29T09:17:20.546Z,2.50
2023-03-29T09:20:28.200Z,3.60
2023-03-29T09:25:54.244Z,3.30
2023-03-29T09:28:38.453Z,2.60
2023-03-29T09:31:21.597Z,5.60
2023-03-29T09:34:00.045Z,3.10
2023-03-29T09:36:43.556Z,3.00
2023-03-29T09:39:15.172Z,2.20
2023-03-29T09:41:59.095Z,2.30
2023-03-29T09:44:33.602Z,2.30
2023-03-29T09:47:29.755Z,5.20
2023-03-29T09:50:19.849Z,2.70
2023-03-29T09:52:56.704Z,4.00
2023-03-29T09:55:29.620Z,9.40
2023-03-29T09:58:16.534Z,3.90
2023-03-29T10:00:48.737Z,2.40
2023-03-29T10:03:24.068Z,2.90
2023-03-29T10:06:14.810Z,6.50
2023-03-29T10:08:59.163Z,9.10
2023-03-29T10:14:18.387Z,3.50
2023-03-29T10:16:54.711Z,2.10
2023-03-29T10:19:34.549Z,3.20
2023-03-29T10:22:14.744Z,3.50
2023-03-29T10:24:49.328Z,2.80
2023-03-29T10:27:23.441Z,5.80
2023-03-29T10:29:52.411Z,3.10
2023-03-29T10:32:20.589Z,2.30
2023-03-29T10:34:50.490Z,2.50
2023-03-29T10:37:21.283Z,3.50
2023-03-29T10:39:50.802Z,4.50
2023-03-29T10:42:23.790Z,2.50
2023-03-29T10:44:58.064Z,2.70
2023-03-29T10:49:58.991Z,2.90
2023-03-29T10:52:30.207Z,3.00
2023-03-29T10:55:00.235Z,2.90
2023-03-29T10:57:50.205Z,18.80
2023-03-29T11:00:58.058Z,4.90
2023-03-29T11:03:44.907Z,2.50
2023-03-29T11:06:32.701Z,6.00
2023-03-29T11:09:16.210Z,2.70
2023-03-29T11:12:12.170Z,2.80
2023-03-29T11:15:03.158Z,2.90
2023-03-29T11:17:51.377Z,4.50
2023-03-29T11:20:32.767Z,3.70
2023-03-29T11:23:30.647Z,4.50
2023-03-29T11:26:23.970Z,3.50
2023-03-29T11:29:16.463Z,4.60
2023-03-29T11:32:00.456Z,4.20
2023-03-29T11:34:59.637Z,3.00
2023-03-29T11:37:33.012Z,3.80
2023-03-29T11:40:32.168Z,4.60
2023-03-29T11:43:04.649Z,6.20
2023-03-29T11:45:40.056Z,6.80
2023-03-29T11:48:17.714Z,10.60
2023-03-29T11:50:57.841Z,4.50
2023-03-29T11:54:24.949Z,4.80
2023-03-29T11:57:04.562Z,4.70
2023-03-29T11:59:52.248Z,5.70
2023-03-29T12:03:00.016Z,7.20
2023-03-29T12:05:42.225Z,5.00
2023-03-29T12:08:13.121Z,5.90
2023-03-29T12:10:46.317Z,5.60
2023-03-29T12:13:30.422Z,5.40
2023-03-29T12:16:10.082Z,5.10
2023-03-29T12:18:45.890Z,4.60
2023-03-29T12:21:21.862Z,4.10
2023-03-29T12:23:52.377Z,3.60
2023-03-29T12:26:45.914Z,6.50
2023-03-29T12:29:32.254Z,3.40
2023-03-29T12:32:28.778Z,3.20
2023-03-29T12:35:06.606Z,3.60
2023-03-29T12:38:05.064Z,4.50
2023-03-29T12:41:02.156Z,4.40
2023-03-29T12:43:54.409Z,4.00
2023-03-29T12:46:34.616Z,4.20
2023-03-29T12:49:23.652Z,4.70
2023-03-29T12:51:53.165Z,3.50
2023-03-29T12:54:27.495Z,4.00
2023-03-29T12:57:01.536Z,3.90
2023-03-29T12:59:38.819Z,4.70
2023-03-29T13:02:14.147Z,4.90
2023-03-29T13:04:50.231Z,6.00
2023-03-29T13:07:26.535Z,4.90
2023-03-29T13:09:59.984Z,4.00
2023-03-29T13:12:42.316Z,5.50
2023-03-29T13:15:19.518Z,6.20
2023-03-29T13:18:11.675Z,3.70
2023-03-29T13:20:50.875Z,4.20
2023-03-29T13:23:25.104Z,3.80
2023-03-29T13:26:11.615Z,4.50
2023-03-29T13:29:15.600Z,5.10
2023-03-29T13:31:53.960Z,5.30
2023-03-29T13:34:55.103Z,4.80
2023-03-29T13:37:28.961Z,3.20
2023-03-29T13:39:57.281Z,6.10
2023-03-29T13:42:25.517Z,4.60
2023-03-29T13:45:14.200Z,4.10
2023-03-29T13:47:54.507Z,4.20
2023-03-29T13:50:40.823Z,4.90
2023-03-29T13:53:28.150Z,4.10
2023-03-29T13:55:58.550Z,3.50
2023-03-29T13:58:38.729Z,5.80
2023-03-29T14:01:35.226Z,4.70
2023-03-29T14:04:06.000Z,5.00
2023-03-29T14:06:37.640Z,17.30
2023-03-29T14:09:08.894Z,5.90
2023-03-29T14:11:37.075Z,3.40
2023-03-29T14:14:08.562Z,6.10
2023-03-29T14:16:39.223Z,3.80
2023-03-29T14:19:29.997Z,3.70
2023-03-29T14:22:01.129Z,3.80
2023-03-29T14:24:39.232Z,4.10
2023-03-29T14:27:10.375Z,3.90
2023-03-29T14:29:38.823Z,4.30
2023-03-29T14:32:13.944Z,4.40
2023-03-29T14:34:43.247Z,3.70
2023-03-29T14:37:18.828Z,3.50
2023-03-29T14:39:47.120Z,5.10
2023-03-29T14:42:22.285Z,4.10
2023-03-29T14:44:51.150Z,4.20
2023-03-29T14:47:31.610Z,5.50
2023-03-29T14:50:01.872Z,6.80
2023-03-29T14:52:32.246Z,4.10
2023-03-29T14:55:02.373Z,3.90
2023-03-29T14:57:39.593Z,4.80
2023-03-29T15:00:39.479Z,5.10
2023-03-29T15:03:14.441Z,4.00
2023-03-29T15:05:47.675Z,3.90
2023-03-29T15:08:23.622Z,4.40
2023-03-29T15:10:52.250Z,4.20
2023-03-29T15:13:24.674Z,4.20
2023-03-29T15:15:57.389Z,4.50
2023-03-29T15:18:39.647Z,4.50
2023-03-29T15:21:09.288Z,4.90
2023-03-29T15:23:41.337Z,3.60
2023-03-29T15:26:14.812Z,4.50
2023-03-29T15:28:49.734Z,4.70
2023-03-29T15:31:20.176Z,6.40
2023-03-29T15:33:48.323Z,5.70
2023-03-29T15:36:16.782Z,4.40
2023-03-29T15:38:49.500Z,5.20
2023-03-29T15:41:17.702Z,6.70
2023-03-29T15:43:46.792Z,10.50
2023-03-29T15:46:16.540Z,6.60
2023-03-29T15:48:44.830Z,6.10
2023-03-29T15:51:13.146Z,5.40
2023-03-29T15:53:41.629Z,5.10
2023-03-29T15:56:15.889Z,5.30
2023-03-29T16:01:37.826Z,7.10
2023-03-29T16:04:17.841Z,7.70
2023-03-29T16:06:52.897Z,8.10
2023-03-29T16:09:22.622Z,7.70
2023-03-29T16:11:51.160Z,8.20
2023-03-29T16:14:27.050Z,4.70
2023-03-29T16:16:57.358Z,4.90
2023-03-29T16:19:27.272Z,6.60
2023-03-29T16:21:55.997Z,6.40
2023-03-29T16:24:29.839Z,8.60
2023-03-29T16:26:59.727Z,8.60
2023-03-29T16:29:28.293Z,5.30
2023-03-29T16:31:57.354Z,6.50
2023-03-29T16:34:26.852Z,6.90
2023-03-29T16:36:55.023Z,7.30
2023-03-29T16:39:23.186Z,7.30
2023-03-29T16:41:51.362Z,8.10
2023-03-29T16:44:27.015Z,7.80
2023-03-29T16:46:57.549Z,6.40
2023-03-29T16:49:25.695Z,6.50
2023-03-29T16:51:53.906Z,7.70
2023-03-29T16:54:25.781Z,7.70
2023-03-29T16:56:54.236Z,7.60
2023-03-29T16:59:22.524Z,8.90
2023-03-29T17:01:50.840Z,8.20
2023-03-29T17:04:19.270Z,9.30
2023-03-29T17:06:47.619Z,10.50
2023-03-29T17:09:17.728Z,10.70
2023-03-29T17:11:46.410Z,27.00
2023-03-29T17:14:14.654Z,23.00
2023-03-29T17:16:42.926Z,15.00
2023-03-29T17:19:11.389Z,10.70
2023-03-29T17:21:39.767Z,10.30
2023-03-29T17:24:09.761Z,9.70
2023-03-29T17:26:38.311Z,9.60
2023-03-29T17:29:06.615Z,10.40
2023-03-29T17:31:36.347Z,8.30
2023-03-29T17:34:04.435Z,9.10
2023-03-29T17:36:34.878Z,7.40
2023-03-29T17:39:04.486Z,8.30
2023-03-29T17:41:32.666Z,12.60
2023-03-29T17:44:01.294Z,12.20
2023-03-29T17:46:29.622Z,10.30
2023-03-29T17:48:59.311Z,7.90
2023-03-29T17:51:27.980Z,8.10
2023-03-29T17:53:57.265Z,9.30
2023-03-29T17:56:26.695Z,8.90
2023-03-29T17:58:58.483Z,8.30
2023-03-29T18:01:26.651Z,6.60
2023-03-29T18:03:55.002Z,8.20
2023-03-29T18:06:23.255Z,6.40
2023-03-29T18:08:53.397Z,7.40
2023-03-29T18:11:24.661Z,8.10
2023-03-29T18:13:53.690Z,10.10
2023-03-29T18:16:22.497Z,10.30
2023-03-29T18:18:51.089Z,11.80
2023-03-29T18:21:20.288Z,13.30
2023-03-29T18:23:50.640Z,12.30
2023-03-29T18:26:19.104Z,12.70
2023-03-29T18:28:51.106Z,15.10
2023-03-29T18:31:20.005Z,16.40
2023-03-29T18:33:48.425Z,20.00
2023-03-29T18:36:16.932Z,21.40
2023-03-29T18:38:45.863Z,19.80
2023-03-29T18:41:17.155Z,19.10
2023-03-29T18:43:46.851Z,16.90
2023-03-29T18:46:15.192Z,20.60
2023-03-29T18:48:43.380Z,17.20
2023-03-29T18:51:12.712Z,13.30
2023-03-29T18:53:43.134Z,13.20
2023-03-29T18:56:11.544Z,12.60
2023-03-29T18:58:39.919Z,13.20
2023-03-29T19:01:09.765Z,16.80
2023-03-29T19:03:38.125Z,18.20
2023-03-29T19:06:07.999Z,18.90
2023-03-29T19:08:38.850Z,19.70
2023-03-29T19:11:09.398Z,33.80
2023-03-29T19:13:37.896Z,47.80
2023-03-29T19:16:06.392Z,49.20
2023-03-29T19:18:34.833Z,50.70
2023-03-29T19:21:03.078Z,52.70
2023-03-29T19:23:31.622Z,51.30
2023-03-29T19:26:05.739Z,41.20
2023-03-29T19:28:34.647Z,33.10
2023-03-29T19:31:04.279Z,32.20
2023-03-29T19:33:33.090Z,31.30
2023-03-29T19:36:01.641Z,34.10
2023-03-29T19:38:30.168Z,36.60
2023-03-29T19:40:58.369Z,34.70
2023-03-29T19:43:27.183Z,29.20
2023-03-29T19:45:55.447Z,24.30
2023-03-29T19:48:24.208Z,18.50
2023-03-29T19:50:53.106Z,21.00
2023-03-29T19:53:23.246Z,17.00
2023-03-29T19:55:52.543Z,14.90
2023-03-29T19:58:21.736Z,8.90
2023-03-29T20:00:53.315Z,9.00
2023-03-29T20:03:23.248Z,9.10
2023-03-29T20:05:51.523Z,9.90
2023-03-29T20:08:19.655Z,13.60
2023-03-29T20:10:47.965Z,11.10
2023-03-29T20:13:24.536Z,11.40
2023-03-29T20:15:59.923Z,27.70
2023-03-29T20:18:28.275Z,17.40
2023-03-29T20:20:56.398Z,16.60
2023-03-29T20:23:24.653Z,17.80
2023-03-29T20:25:53.563Z,23.00
2023-03-29T20:28:21.670Z,23.30
2023-03-29T20:30:51.436Z,21.50
2023-03-29T20:33:21.546Z,20.50
2023-03-29T20:35:49.928Z,25.50
2023-03-29T20:38:18.168Z,22.10
2023-03-29T20:40:46.396Z,17.00
2023-03-29T20:43:18.392Z,17.00
2023-03-29T20:45:53.822Z,18.10
2023-03-29T20:48:24.327Z,17.00
2023-03-29T20:50:52.655Z,17.10
2023-03-29T20:53:20.886Z,19.50
2023-03-29T20:55:49.116Z,19.80
2023-03-29T20:58:17.782Z,16.50
2023-03-29T21:00:46.906Z,19.90
2023-03-29T21:03:15.232Z,16.30
2023-03-29T21:05:43.628Z,19.50
2023-03-29T21:08:11.777Z,21.80
2023-03-29T21:10:42.490Z,27.80
2023-03-29T21:13:10.786Z,21.60
2023-03-29T21:15:40.657Z,17.80
2023-03-29T21:18:09.000Z,14.20
2023-03-29T21:20:37.969Z,10.60
2023-03-29T21:23:06.326Z,7.60
2023-03-29T21:25:34.351Z,10.80
2023-03-29T21:28:02.439Z,8.20
2023-03-29T21:30:32.035Z,12.40
2023-03-29T21:33:00.836Z,10.80
2023-03-29T21:35:29.004Z,14.10
2023-03-29T21:37:57.283Z,14.80
2023-03-29T21:40:25.863Z,14.60
2023-03-29T21:42:54.143Z,16.40
2023-03-29T21:45:22.592Z,16.40
2023-03-29T21:47:51.338Z,15.90
2023-03-29T21:50:19.541Z,16.30
2023-03-29T21:52:48.725Z,17.90
2023-03-29T21:55:19.652Z,17.70
2023-03-29T21:57:48.412Z,23.90
2023-03-29T22:00:18.069Z,21.10
2023-03-29T22:02:46.765Z,17.00
2023-03-29T22:05:16.350Z,14.10
2023-03-29T22:07:44.719Z,9.40
2023-03-29T22:10:13.077Z,12.30
2023-03-29T22:12:41.531Z,11.20
2023-03-29T22:15:15.084Z,7.00
2023-03-29T22:17:43.475Z,11.70
2023-03-29T22:20:15.011Z,10.00
2023-03-29T22:22:45.861Z,9.80
2023-03-29T22:25:14.448Z,10.00
2023-03-29T22:27:46.996Z,8.00
2023-03-29T22:30:16.446Z,7.50
2023-03-29T22:32:45.068Z,9.10
2023-03-29T22:35:13.261Z,9.30
2023-03-29T22:37:43.693Z,8.60
2023-03-29T22:40:13.439Z,11.90
2023-03-29T22:42:41.749Z,11.00
2023-03-29T22:45:11.055Z,13.20
2023-03-29T22:47:39.232Z,12.70
2023-03-29T22:50:08.313Z,11.80
2023-03-29T22:52:36.498Z,8.20
2023-03-29T22:55:05.012Z,8.50
2023-03-29T22:57:33.220Z,10.00
2023-03-29T23:00:01.787Z,14.40
2023-03-29T23:02:29.944Z,9.70
2023-03-29T23:04:58.282Z,10.00
2023-03-29T23:07:28.129Z,11.20
2023-03-29T23:09:56.608Z,8.80
2023-03-29T23:12:24.728Z,8.60
2023-03-29T23:14:53.142Z,10.00
2023-03-29T23:17:21.508Z,12.80
2023-03-29T23:19:49.646Z,12.30
2023-03-29T23:22:17.694Z,12.00
2023-03-29T23:24:47.433Z,11.40
2023-03-29T23:27:15.763Z,10.40
2023-03-29T23:29:45.328Z,6.70
2023-03-29T23:32:15.759Z,9.90
2023-03-29T23:34:44.681Z,11.00
2023-03-29T23:37:12.956Z,10.70
2023-03-29T23:39:41.641Z,8.60
2023-03-29T23:42:10.647Z,11.70
2023-03-29T23:44:42.588Z,13.20
2023-03-29T23:47:14.075Z,6.30
2023-03-29T23:49:42.204Z,7.20
2023-03-29T23:52:10.465Z,7.50
2023-03-29T23:54:38.585Z,16.20
2023-03-29T23:57:10.952Z,13.10
2023-03-29T23:59:40.122Z,8.50
